sensor_id;sensor_type;location;lat;lon;timestamp;P1;durP1;ratioP1;P2;durP2;ratioP2
7703;SDS011;3894;49.700;10.770;2022-12-07T00:01:04;10.60;;;5.00;;
7703;SDS011;3894;49.700;10.770;2022-12-07T00:03:35;12.27;;;5.15;;
7703;SDS011;3894;49.700;10.770;2022-12-07T00:06:01;13.98;;;5.35;;
7703;SDS011;3894;49.700;10.770;2022-12-07T00:08:28;12.25;;;5.00;;
7703;SDS011;3894;49.700;10.770;2022-12-07T00:10:54;11.27;;;5.18;;
7703;SDS011;3894;49.700;10.770;2022-12-07T00:13:20;11.68;;;4.82;;
7703;SDS011;3894;49.700;10.770;2022-12-07T00:15:45;11.70;;;3.80;;
7703;SDS011;3894;49.700;10.770;2022-12-07T00:18:11;12.05;;;5.18;;
7703;SDS011;3894;49.700;10.770;2022-12-07T00:20:36;11.90;;;4.18;;
7703;SDS011;3894;49.700;10.770;2022-12-07T00:23:02;10.75;;;4.25;;
7703;SDS011;3894;49.700;10.770;2022-12-07T00:25:27;11.75;;;5.15;;
7703;SDS011;3894;49.700;10.770;2022-12-07T00:27:54;12.85;;;5.03;;
7703;SDS011;3894;49.700;10.770;2022-12-07T00:30:21;12.02;;;5.25;;
7703;SDS011;3894;49.700;10.770;2022-12-07T00:32:48;11.60;;;5.32;;
7703;SDS011;3894;49.700;10.770;2022-12-07T00:35:14;12.98;;;5.22;;
7703;SDS011;3894;49.700;10.770;2022-12-07T00:37:39;12.55;;;5.78;;
7703;SDS011;3894;49.700;10.770;2022-12-07T00:40:05;11.75;;;4.68;;
7703;SDS011;3894;49.700;10.770;2022-12-07T00:42:31;13.25;;;5.53;;
7703;SDS011;3894;49.700;10.770;2022-12-07T00:44:57;13.25;;;5.10;;
7703;SDS011;3894;49.700;10.770;2022-12-07T00:47:23;14.07;;;5.20;;
7703;SDS011;3894;49.700;10.770;2022-12-07T00:49:48;14.32;;;5.70;;
7703;SDS011;3894;49.700;10.770;2022-12-07T00:52:14;13.38;;;5.65;;
7703;SDS011;3894;49.700;10.770;2022-12-07T00:54:39;11.65;;;4.18;;
7703;SDS011;3894;49.700;10.770;2022-12-07T00:57:05;12.13;;;5.00;;
7703;SDS011;3894;49.700;10.770;2022-12-07T00:59:31;16.48;;;5.80;;
7703;SDS011;3894;49.700;10.770;2022-12-07T01:01:56;12.82;;;4.78;;
7703;SDS011;3894;49.700;10.770;2022-12-07T01:04:22;14.13;;;6.20;;
7703;SDS011;3894;49.700;10.770;2022-12-07T01:06:47;11.38;;;5.10;;
7703;SDS011;3894;49.700;10.770;2022-12-07T01:09:13;11.88;;;5.28;;
7703;SDS011;3894;49.700;10.770;2022-12-07T01:11:38;11.73;;;4.72;;
7703;SDS011;3894;49.700;10.770;2022-12-07T01:14:04;12.40;;;4.63;;
7703;SDS011;3894;49.700;10.770;2022-12-07T01:16:31;11.40;;;5.25;;
7703;SDS011;3894;49.700;10.770;2022-12-07T01:18:58;10.85;;;4.32;;
7703;SDS011;3894;49.700;10.770;2022-12-07T01:21:25;10.73;;;4.32;;
7703;SDS011;3894;49.700;10.770;2022-12-07T01:26:19;10.77;;;4.97;;
7703;SDS011;3894;49.700;10.770;2022-12-07T01:28:46;11.48;;;5.68;;
7703;SDS011;3894;49.700;10.770;2022-12-07T01:31:13;11.50;;;5.13;;
7703;SDS011;3894;49.700;10.770;2022-12-07T01:33:41;12.60;;;5.45;;
7703;SDS011;3894;49.700;10.770;2022-12-07T01:36:12;13.98;;;5.53;;
7703;SDS011;3894;49.700;10.770;2022-12-07T01:38:46;16.42;;;6.18;;
7703;SDS011;3894;49.700;10.770;2022-12-07T01:41:14;12.63;;;5.13;;
7703;SDS011;3894;49.700;10.770;2022-12-07T01:46:44;12.90;;;5.20;;
7703;SDS011;3894;49.700;10.770;2022-12-07T01:51:50;14.52;;;5.45;;
7703;SDS011;3894;49.700;10.770;2022-12-07T01:54:19;13.20;;;4.65;;
7703;SDS011;3894;49.700;10.770;2022-12-07T01:56:47;14.38;;;5.15;;
7703;SDS011;3894;49.700;10.770;2022-12-07T01:59:16;14.23;;;5.60;;
7703;SDS011;3894;49.700;10.770;2022-12-07T02:01:44;13.63;;;6.10;;
7703;SDS011;3894;49.700;10.770;2022-12-07T02:04:10;14.65;;;6.35;;
7703;SDS011;3894;49.700;10.770;2022-12-07T02:06:37;14.35;;;5.65;;
7703;SDS011;3894;49.700;10.770;2022-12-07T02:09:03;18.08;;;5.82;;
7703;SDS011;3894;49.700;10.770;2022-12-07T02:11:29;15.55;;;6.25;;
7703;SDS011;3894;49.700;10.770;2022-12-07T02:13:55;15.25;;;5.88;;
7703;SDS011;3894;49.700;10.770;2022-12-07T02:16:36;17.75;;;7.00;;
7703;SDS011;3894;49.700;10.770;2022-12-07T02:22:13;16.35;;;6.47;;
7703;SDS011;3894;49.700;10.770;2022-12-07T02:25:08;15.00;;;6.32;;
7703;SDS011;3894;49.700;10.770;2022-12-07T02:27:56;14.82;;;6.05;;
7703;SDS011;3894;49.700;10.770;2022-12-07T02:30:45;12.82;;;6.03;;
7703;SDS011;3894;49.700;10.770;2022-12-07T02:33:14;12.38;;;5.72;;
7703;SDS011;3894;49.700;10.770;2022-12-07T02:36:01;13.73;;;5.72;;
7703;SDS011;3894;49.700;10.770;2022-12-07T02:38:35;12.63;;;4.95;;
7703;SDS011;3894;49.700;10.770;2022-12-07T02:41:25;14.93;;;5.57;;
7703;SDS011;3894;49.700;10.770;2022-12-07T02:44:01;13.73;;;5.47;;
7703;SDS011;3894;49.700;10.770;2022-12-07T02:46:34;15.45;;;6.07;;
7703;SDS011;3894;49.700;10.770;2022-12-07T02:49:03;15.25;;;6.15;;
7703;SDS011;3894;49.700;10.770;2022-12-07T02:51:30;13.18;;;5.45;;
7703;SDS011;3894;49.700;10.770;2022-12-07T02:53:56;13.38;;;6.80;;
7703;SDS011;3894;49.700;10.770;2022-12-07T02:56:30;14.77;;;4.95;;
7703;SDS011;3894;49.700;10.770;2022-12-07T03:19:12;13.77;;;5.20;;
7703;SDS011;3894;49.700;10.770;2022-12-07T03:21:41;14.43;;;5.85;;
7703;SDS011;3894;49.700;10.770;2022-12-07T03:24:13;15.18;;;5.75;;
7703;SDS011;3894;49.700;10.770;2022-12-07T03:26:43;12.45;;;5.40;;
7703;SDS011;3894;49.700;10.770;2022-12-07T03:29:16;15.85;;;6.30;;
7703;SDS011;3894;49.700;10.770;2022-12-07T03:31:54;18.15;;;7.15;;
7703;SDS011;3894;49.700;10.770;2022-12-07T03:34:28;14.68;;;5.47;;
7703;SDS011;3894;49.700;10.770;2022-12-07T03:37:10;12.55;;;5.30;;
7703;SDS011;3894;49.700;10.770;2022-12-07T03:42:55;17.70;;;7.00;;
7703;SDS011;3894;49.700;10.770;2022-12-07T03:45:25;20.40;;;7.18;;
7703;SDS011;3894;49.700;10.770;2022-12-07T03:50:39;20.35;;;9.32;;
7703;SDS011;3894;49.700;10.770;2022-12-07T03:53:33;15.02;;;6.55;;
7703;SDS011;3894;49.700;10.770;2022-12-07T03:56:04;15.88;;;6.97;;
7703;SDS011;3894;49.700;10.770;2022-12-07T03:58:31;16.45;;;6.93;;
7703;SDS011;3894;49.700;10.770;2022-12-07T04:00:57;15.95;;;6.47;;
7703;SDS011;3894;49.700;10.770;2022-12-07T04:03:23;15.43;;;6.55;;
7703;SDS011;3894;49.700;10.770;2022-12-07T04:05:48;21.67;;;8.35;;
7703;SDS011;3894;49.700;10.770;2022-12-07T04:08:14;16.15;;;7.38;;
7703;SDS011;3894;49.700;10.770;2022-12-07T04:10:40;16.90;;;7.25;;
7703;SDS011;3894;49.700;10.770;2022-12-07T04:13:05;19.58;;;9.00;;
7703;SDS011;3894;49.700;10.770;2022-12-07T04:15:31;16.67;;;7.22;;
7703;SDS011;3894;49.700;10.770;2022-12-07T04:17:56;17.80;;;8.07;;
7703;SDS011;3894;49.700;10.770;2022-12-07T04:20:22;14.13;;;6.45;;
7703;SDS011;3894;49.700;10.770;2022-12-07T04:22:47;19.00;;;7.47;;
7703;SDS011;3894;49.700;10.770;2022-12-07T04:25:13;15.60;;;7.82;;
7703;SDS011;3894;49.700;10.770;2022-12-07T04:27:39;20.45;;;7.38;;
7703;SDS011;3894;49.700;10.770;2022-12-07T04:30:04;19.05;;;7.28;;
7703;SDS011;3894;49.700;10.770;2022-12-07T04:32:30;15.10;;;7.22;;
7703;SDS011;3894;49.700;10.770;2022-12-07T04:34:56;18.85;;;7.10;;
7703;SDS011;3894;49.700;10.770;2022-12-07T04:37:22;18.23;;;7.90;;
7703;SDS011;3894;49.700;10.770;2022-12-07T04:39:49;18.70;;;7.65;;
7703;SDS011;3894;49.700;10.770;2022-12-07T04:42:14;23.50;;;9.10;;
7703;SDS011;3894;49.700;10.770;2022-12-07T04:44:40;22.10;;;8.48;;
7703;SDS011;3894;49.700;10.770;2022-12-07T04:47:06;22.95;;;9.73;;
7703;SDS011;3894;49.700;10.770;2022-12-07T04:49:32;22.65;;;9.10;;
7703;SDS011;3894;49.700;10.770;2022-12-07T04:51:57;19.65;;;7.88;;
7703;SDS011;3894;49.700;10.770;2022-12-07T04:54:23;17.73;;;7.47;;
7703;SDS011;3894;49.700;10.770;2022-12-07T04:56:48;20.13;;;7.18;;
7703;SDS011;3894;49.700;10.770;2022-12-07T04:59:14;25.88;;;10.32;;
7703;SDS011;3894;49.700;10.770;2022-12-07T05:01:41;19.75;;;8.57;;
7703;SDS011;3894;49.700;10.770;2022-12-07T05:04:07;20.08;;;9.25;;
7703;SDS011;3894;49.700;10.770;2022-12-07T05:06:33;19.98;;;7.63;;
7703;SDS011;3894;49.700;10.770;2022-12-07T05:08:58;18.23;;;7.32;;
7703;SDS011;3894;49.700;10.770;2022-12-07T05:11:24;21.83;;;8.13;;
7703;SDS011;3894;49.700;10.770;2022-12-07T05:14:06;19.35;;;8.70;;
7703;SDS011;3894;49.700;10.770;2022-12-07T05:16:40;22.42;;;9.05;;
7703;SDS011;3894;49.700;10.770;2022-12-07T05:19:07;21.27;;;7.38;;
7703;SDS011;3894;49.700;10.770;2022-12-07T05:21:33;20.23;;;7.78;;
7703;SDS011;3894;49.700;10.770;2022-12-07T05:23:59;21.45;;;8.68;;
7703;SDS011;3894;49.700;10.770;2022-12-07T05:26:25;24.92;;;9.45;;
7703;SDS011;3894;49.700;10.770;2022-12-07T05:28:52;19.80;;;9.38;;
7703;SDS011;3894;49.700;10.770;2022-12-07T05:31:18;20.75;;;8.18;;
7703;SDS011;3894;49.700;10.770;2022-12-07T05:33:44;19.75;;;7.88;;
7703;SDS011;3894;49.700;10.770;2022-12-07T05:36:09;24.75;;;9.55;;
7703;SDS011;3894;49.700;10.770;2022-12-07T05:38:35;20.08;;;8.80;;
7703;SDS011;3894;49.700;10.770;2022-12-07T05:41:01;17.65;;;5.72;;
7703;SDS011;3894;49.700;10.770;2022-12-07T05:43:31;18.23;;;6.53;;
7703;SDS011;3894;49.700;10.770;2022-12-07T05:45:57;18.63;;;7.13;;
7703;SDS011;3894;49.700;10.770;2022-12-07T05:48:23;16.42;;;6.30;;
7703;SDS011;3894;49.700;10.770;2022-12-07T05:50:49;14.77;;;5.85;;
7703;SDS011;3894;49.700;10.770;2022-12-07T05:53:15;15.52;;;5.82;;
7703;SDS011;3894;49.700;10.770;2022-12-07T05:55:41;17.90;;;6.05;;
7703;SDS011;3894;49.700;10.770;2022-12-07T05:58:07;15.82;;;5.63;;
7703;SDS011;3894;49.700;10.770;2022-12-07T06:00:51;18.98;;;4.90;;
7703;SDS011;3894;49.700;10.770;2022-12-07T06:03:18;17.48;;;6.43;;
7703;SDS011;3894;49.700;10.770;2022-12-07T06:05:44;16.02;;;5.45;;
7703;SDS011;3894;49.700;10.770;2022-12-07T06:08:10;19.23;;;6.28;;
7703;SDS011;3894;49.700;10.770;2022-12-07T06:10:35;15.30;;;5.88;;
7703;SDS011;3894;49.700;10.770;2022-12-07T06:13:01;14.02;;;5.63;;
7703;SDS011;3894;49.700;10.770;2022-12-07T06:15:26;16.35;;;6.18;;
7703;SDS011;3894;49.700;10.770;2022-12-07T06:17:52;17.48;;;6.20;;
7703;SDS011;3894;49.700;10.770;2022-12-07T06:20:17;16.52;;;5.93;;
7703;SDS011;3894;49.700;10.770;2022-12-07T06:22:43;18.30;;;6.15;;
7703;SDS011;3894;49.700;10.770;2022-12-07T06:25:09;16.40;;;6.40;;
7703;SDS011;3894;49.700;10.770;2022-12-07T06:30:03;15.82;;;6.18;;
7703;SDS011;3894;49.700;10.770;2022-12-07T06:32:31;16.17;;;5.72;;
7703;SDS011;3894;49.700;10.770;2022-12-07T06:34:58;18.05;;;7.25;;
7703;SDS011;3894;49.700;10.770;2022-12-07T06:37:24;18.27;;;6.80;;
7703;SDS011;3894;49.700;10.770;2022-12-07T06:39:50;16.95;;;5.47;;
7703;SDS011;3894;49.700;10.770;2022-12-07T06:42:16;15.80;;;6.00;;
7703;SDS011;3894;49.700;10.770;2022-12-07T06:44:41;11.27;;;3.60;;
7703;SDS011;3894;49.700;10.770;2022-12-07T06:47:07;21.35;;;6.18;;
7703;SDS011;3894;49.700;10.770;2022-12-07T06:49:34;19.80;;;6.60;;
7703;SDS011;3894;49.700;10.770;2022-12-07T06:52:00;14.50;;;4.60;;
7703;SDS011;3894;49.700;10.770;2022-12-07T06:54:25;17.27;;;6.38;;
7703;SDS011;3894;49.700;10.770;2022-12-07T06:56:51;12.75;;;4.85;;
7703;SDS011;3894;49.700;10.770;2022-12-07T06:59:16;15.45;;;5.72;;
7703;SDS011;3894;49.700;10.770;2022-12-07T07:01:42;16.83;;;5.88;;
7703;SDS011;3894;49.700;10.770;2022-12-07T07:04:07;17.73;;;6.25;;
7703;SDS011;3894;49.700;10.770;2022-12-07T07:06:33;18.80;;;5.50;;
7703;SDS011;3894;49.700;10.770;2022-12-07T07:08:59;12.32;;;5.18;;
7703;SDS011;3894;49.700;10.770;2022-12-07T07:11:24;17.80;;;6.65;;
7703;SDS011;3894;49.700;10.770;2022-12-07T07:13:50;17.13;;;6.57;;
7703;SDS011;3894;49.700;10.770;2022-12-07T07:16:15;19.70;;;7.25;;
7703;SDS011;3894;49.700;10.770;2022-12-07T07:18:41;15.93;;;6.22;;
7703;SDS011;3894;49.700;10.770;2022-12-07T07:21:07;14.80;;;6.03;;
7703;SDS011;3894;49.700;10.770;2022-12-07T07:23:32;16.02;;;5.07;;
7703;SDS011;3894;49.700;10.770;2022-12-07T07:25:58;11.00;;;3.90;;
7703;SDS011;3894;49.700;10.770;2022-12-07T07:28:24;15.52;;;6.07;;
7703;SDS011;3894;49.700;10.770;2022-12-07T07:30:49;15.88;;;6.13;;
7703;SDS011;3894;49.700;10.770;2022-12-07T07:33:15;17.67;;;6.78;;
7703;SDS011;3894;49.700;10.770;2022-12-07T07:35:41;14.27;;;5.20;;
7703;SDS011;3894;49.700;10.770;2022-12-07T07:38:07;16.80;;;4.97;;
7703;SDS011;3894;49.700;10.770;2022-12-07T07:40:33;16.60;;;5.97;;
7703;SDS011;3894;49.700;10.770;2022-12-07T07:42:59;16.30;;;6.05;;
7703;SDS011;3894;49.700;10.770;2022-12-07T07:45:25;15.80;;;6.00;;
7703;SDS011;3894;49.700;10.770;2022-12-07T07:47:52;12.10;;;4.93;;
7703;SDS011;3894;49.700;10.770;2022-12-07T07:50:18;14.57;;;5.88;;
7703;SDS011;3894;49.700;10.770;2022-12-07T07:52:44;15.52;;;5.38;;
7703;SDS011;3894;49.700;10.770;2022-12-07T07:55:10;16.58;;;5.65;;
7703;SDS011;3894;49.700;10.770;2022-12-07T07:57:36;14.68;;;6.55;;
7703;SDS011;3894;49.700;10.770;2022-12-07T08:00:03;15.07;;;5.68;;
7703;SDS011;3894;49.700;10.770;2022-12-07T08:02:30;13.35;;;4.57;;
7703;SDS011;3894;49.700;10.770;2022-12-07T08:04:56;15.30;;;5.65;;
7703;SDS011;3894;49.700;10.770;2022-12-07T08:07:21;18.27;;;7.10;;
7703;SDS011;3894;49.700;10.770;2022-12-07T08:09:47;10.95;;;3.47;;
7703;SDS011;3894;49.700;10.770;2022-12-07T08:12:12;15.38;;;5.75;;
7703;SDS011;3894;49.700;10.770;2022-12-07T08:14:38;16.73;;;5.82;;
7703;SDS011;3894;49.700;10.770;2022-12-07T08:17:04;11.93;;;4.80;;
7703;SDS011;3894;49.700;10.770;2022-12-07T08:19:29;15.10;;;5.28;;
7703;SDS011;3894;49.700;10.770;2022-12-07T08:21:55;23.63;;;9.40;;
7703;SDS011;3894;49.700;10.770;2022-12-07T08:24:21;20.20;;;7.10;;
7703;SDS011;3894;49.700;10.770;2022-12-07T08:26:47;19.30;;;7.00;;
7703;SDS011;3894;49.700;10.770;2022-12-07T08:29:14;21.17;;;7.90;;
7703;SDS011;3894;49.700;10.770;2022-12-07T08:31:40;19.50;;;8.20;;
7703;SDS011;3894;49.700;10.770;2022-12-07T08:34:06;14.27;;;5.53;;
7703;SDS011;3894;49.700;10.770;2022-12-07T08:36:31;21.95;;;8.90;;
7703;SDS011;3894;49.700;10.770;2022-12-07T08:38:57;20.05;;;6.90;;
7703;SDS011;3894;49.700;10.770;2022-12-07T08:41:22;15.38;;;5.47;;
7703;SDS011;3894;49.700;10.770;2022-12-07T08:43:50;30.80;;;11.38;;
7703;SDS011;3894;49.700;10.770;2022-12-07T08:46:21;21.25;;;7.28;;
7703;SDS011;3894;49.700;10.770;2022-12-07T08:48:55;20.42;;;7.22;;
7703;SDS011;3894;49.700;10.770;2022-12-07T08:51:42;16.40;;;5.28;;
7703;SDS011;3894;49.700;10.770;2022-12-07T08:54:09;20.58;;;7.30;;
7703;SDS011;3894;49.700;10.770;2022-12-07T08:56:37;15.48;;;5.15;;
7703;SDS011;3894;49.700;10.770;2022-12-07T08:59:04;26.88;;;10.45;;
7703;SDS011;3894;49.700;10.770;2022-12-07T09:01:31;21.85;;;9.43;;
7703;SDS011;3894;49.700;10.770;2022-12-07T09:03:57;19.95;;;8.05;;
7703;SDS011;3894;49.700;10.770;2022-12-07T09:06:23;20.00;;;7.25;;
7703;SDS011;3894;49.700;10.770;2022-12-07T09:08:49;28.58;;;9.77;;
7703;SDS011;3894;49.700;10.770;2022-12-07T09:11:18;24.98;;;8.50;;
7703;SDS011;3894;49.700;10.770;2022-12-07T09:13:44;20.42;;;9.02;;
7703;SDS011;3894;49.700;10.770;2022-12-07T09:16:09;21.45;;;7.18;;
7703;SDS011;3894;49.700;10.770;2022-12-07T09:18:35;20.30;;;7.97;;
7703;SDS011;3894;49.700;10.770;2022-12-07T09:21:01;21.08;;;8.60;;
7703;SDS011;3894;49.700;10.770;2022-12-07T09:23:26;10.48;;;4.55;;
7703;SDS011;3894;49.700;10.770;2022-12-07T09:25:52;20.58;;;6.70;;
7703;SDS011;3894;49.700;10.770;2022-12-07T09:28:18;15.93;;;7.60;;
7703;SDS011;3894;49.700;10.770;2022-12-07T09:30:47;16.30;;;6.20;;
7703;SDS011;3894;49.700;10.770;2022-12-07T09:33:13;17.13;;;6.97;;
7703;SDS011;3894;49.700;10.770;2022-12-07T09:35:43;13.57;;;5.57;;
7703;SDS011;3894;49.700;10.770;2022-12-07T09:38:13;15.77;;;6.65;;
7703;SDS011;3894;49.700;10.770;2022-12-07T09:40:38;16.38;;;6.85;;
7703;SDS011;3894;49.700;10.770;2022-12-07T09:43:05;15.45;;;5.60;;
7703;SDS011;3894;49.700;10.770;2022-12-07T09:45:37;15.82;;;6.40;;
7703;SDS011;3894;49.700;10.770;2022-12-07T09:48:03;15.40;;;6.47;;
7703;SDS011;3894;49.700;10.770;2022-12-07T09:50:29;11.02;;;3.78;;
7703;SDS011;3894;49.700;10.770;2022-12-07T09:53:06;13.63;;;5.22;;
7703;SDS011;3894;49.700;10.770;2022-12-07T09:55:35;17.77;;;7.22;;
7703;SDS011;3894;49.700;10.770;2022-12-07T09:58:01;16.80;;;6.22;;
7703;SDS011;3894;49.700;10.770;2022-12-07T10:00:27;16.92;;;6.80;;
7703;SDS011;3894;49.700;10.770;2022-12-07T10:03:01;18.05;;;6.32;;
7703;SDS011;3894;49.700;10.770;2022-12-07T10:05:32;13.15;;;5.60;;
7703;SDS011;3894;49.700;10.770;2022-12-07T10:10:32;19.45;;;8.25;;
7703;SDS011;3894;49.700;10.770;2022-12-07T10:13:04;41.63;;;18.70;;
7703;SDS011;3894;49.700;10.770;2022-12-07T10:18:38;18.42;;;9.52;;
7703;SDS011;3894;49.700;10.770;2022-12-07T10:21:19;14.48;;;6.38;;
7703;SDS011;3894;49.700;10.770;2022-12-07T10:23:59;18.95;;;9.05;;
7703;SDS011;3894;49.700;10.770;2022-12-07T10:29:01;17.38;;;7.88;;
7703;SDS011;3894;49.700;10.770;2022-12-07T10:31:37;31.73;;;13.32;;
7703;SDS011;3894;49.700;10.770;2022-12-07T10:34:12;22.52;;;10.20;;
7703;SDS011;3894;49.700;10.770;2022-12-07T10:37:06;19.38;;;8.02;;
7703;SDS011;3894;49.700;10.770;2022-12-07T10:39:43;34.58;;;15.77;;
7703;SDS011;3894;49.700;10.770;2022-12-07T10:44:48;17.77;;;7.28;;
7703;SDS011;3894;49.700;10.770;2022-12-07T10:55:22;25.52;;;11.77;;
7703;SDS011;3894;49.700;10.770;2022-12-07T10:58:17;15.18;;;6.15;;
7703;SDS011;3894;49.700;10.770;2022-12-07T11:12:25;11.35;;;5.97;;
7703;SDS011;3894;49.700;10.770;2022-12-07T11:15:04;15.88;;;6.95;;
7703;SDS011;3894;49.700;10.770;2022-12-07T11:17:57;19.52;;;7.35;;
7703;SDS011;3894;49.700;10.770;2022-12-07T11:23:11;27.77;;;11.82;;
7703;SDS011;3894;49.700;10.770;2022-12-07T11:25:49;24.98;;;11.70;;
7703;SDS011;3894;49.700;10.770;2022-12-07T11:30:57;19.75;;;5.93;;
7703;SDS011;3894;49.700;10.770;2022-12-07T11:34:04;17.45;;;7.78;;
7703;SDS011;3894;49.700;10.770;2022-12-07T11:36:43;18.45;;;8.10;;
7703;SDS011;3894;49.700;10.770;2022-12-07T11:39:22;21.83;;;7.80;;
7703;SDS011;3894;49.700;10.770;2022-12-07T11:42:06;15.77;;;6.82;;
7703;SDS011;3894;49.700;10.770;2022-12-07T11:47:25;21.92;;;9.25;;
7703;SDS011;3894;49.700;10.770;2022-12-07T11:52:49;50.90;;;18.17;;
7703;SDS011;3894;49.700;10.770;2022-12-07T11:58:14;28.00;;;11.02;;
7703;SDS011;3894;49.700;10.770;2022-12-07T12:00:54;23.38;;;11.55;;
7703;SDS011;3894;49.700;10.770;2022-12-07T12:03:29;19.10;;;7.90;;
7703;SDS011;3894;49.700;10.770;2022-12-07T12:05:58;31.90;;;12.40;;
7703;SDS011;3894;49.700;10.770;2022-12-07T12:08:27;20.13;;;9.02;;
7703;SDS011;3894;49.700;10.770;2022-12-07T12:14:01;33.83;;;15.73;;
7703;SDS011;3894;49.700;10.770;2022-12-07T12:19:34;21.05;;;10.60;;
7703;SDS011;3894;49.700;10.770;2022-12-07T12:22:14;16.95;;;7.50;;
7703;SDS011;3894;49.700;10.770;2022-12-07T12:24:43;15.80;;;8.02;;
7703;SDS011;3894;49.700;10.770;2022-12-07T12:27:30;18.67;;;8.20;;
7703;SDS011;3894;49.700;10.770;2022-12-07T12:30:00;14.43;;;6.20;;
7703;SDS011;3894;49.700;10.770;2022-12-07T12:40:58;16.50;;;7.53;;
7703;SDS011;3894;49.700;10.770;2022-12-07T13:00:14;11.20;;;5.80;;
7703;SDS011;3894;49.700;10.770;2022-12-07T13:04:58;13.18;;;5.20;;
7703;SDS011;3894;49.700;10.770;2022-12-07T13:10:29;14.80;;;6.22;;
7703;SDS011;3894;49.700;10.770;2022-12-07T13:15:39;9.27;;;3.53;;
7703;SDS011;3894;49.700;10.770;2022-12-07T13:20:57;16.90;;;8.02;;
7703;SDS011;3894;49.700;10.770;2022-12-07T13:23:37;15.30;;;6.35;;
7703;SDS011;3894;49.700;10.770;2022-12-07T13:26:19;14.07;;;4.15;;
7703;SDS011;3894;49.700;10.770;2022-12-07T13:28:52;12.60;;;5.35;;
7703;SDS011;3894;49.700;10.770;2022-12-07T13:31:39;15.57;;;6.65;;
7703;SDS011;3894;49.700;10.770;2022-12-07T13:34:30;13.02;;;5.63;;
7703;SDS011;3894;49.700;10.770;2022-12-07T13:37:00;13.77;;;5.72;;
7703;SDS011;3894;49.700;10.770;2022-12-07T13:42:30;9.50;;;2.92;;
7703;SDS011;3894;49.700;10.770;2022-12-07T13:44:58;12.35;;;6.60;;
7703;SDS011;3894;49.700;10.770;2022-12-07T13:50:02;11.95;;;4.50;;
7703;SDS011;3894;49.700;10.770;2022-12-07T13:52:50;10.68;;;5.03;;
7703;SDS011;3894;49.700;10.770;2022-12-07T13:55:20;10.38;;;4.93;;
7703;SDS011;3894;49.700;10.770;2022-12-07T13:57:47;11.52;;;4.00;;
7703;SDS011;3894;49.700;10.770;2022-12-07T14:00:18;16.75;;;6.43;;
7703;SDS011;3894;49.700;10.770;2022-12-07T14:03:01;14.75;;;6.55;;
7703;SDS011;3894;49.700;10.770;2022-12-07T14:05:36;11.20;;;4.50;;
7703;SDS011;3894;49.700;10.770;2022-12-07T14:08:04;14.48;;;5.38;;
7703;SDS011;3894;49.700;10.770;2022-12-07T14:13:34;15.18;;;5.57;;
7703;SDS011;3894;49.700;10.770;2022-12-07T14:16:05;12.38;;;4.63;;
7703;SDS011;3894;49.700;10.770;2022-12-07T14:18:50;11.65;;;4.57;;
7703;SDS011;3894;49.700;10.770;2022-12-07T14:21:16;15.05;;;5.43;;
7703;SDS011;3894;49.700;10.770;2022-12-07T14:23:44;31.00;;;12.18;;
7703;SDS011;3894;49.700;10.770;2022-12-07T14:26:20;17.98;;;8.15;;
7703;SDS011;3894;49.700;10.770;2022-12-07T14:28:47;19.88;;;9.50;;
7703;SDS011;3894;49.700;10.770;2022-12-07T14:31:16;22.50;;;8.48;;
7703;SDS011;3894;49.700;10.770;2022-12-07T14:33:44;17.85;;;6.80;;
7703;SDS011;3894;49.700;10.770;2022-12-07T14:36:10;16.60;;;6.38;;
7703;SDS011;3894;49.700;10.770;2022-12-07T14:38:37;21.83;;;8.68;;
7703;SDS011;3894;49.700;10.770;2022-12-07T14:41:03;30.60;;;11.35;;
7703;SDS011;3894;49.700;10.770;2022-12-07T14:43:48;13.70;;;5.90;;
7703;SDS011;3894;49.700;10.770;2022-12-07T14:46:14;14.25;;;6.15;;
7703;SDS011;3894;49.700;10.770;2022-12-07T14:48:40;16.80;;;6.40;;
7703;SDS011;3894;49.700;10.770;2022-12-07T14:51:05;15.57;;;7.57;;
7703;SDS011;3894;49.700;10.770;2022-12-07T14:53:37;14.82;;;6.93;;
7703;SDS011;3894;49.700;10.770;2022-12-07T14:56:05;24.02;;;11.95;;
7703;SDS011;3894;49.700;10.770;2022-12-07T14:58:31;15.60;;;7.15;;
7703;SDS011;3894;49.700;10.770;2022-12-07T15:00:57;14.50;;;6.45;;
7703;SDS011;3894;49.700;10.770;2022-12-07T15:03:23;15.38;;;6.22;;
7703;SDS011;3894;49.700;10.770;2022-12-07T15:05:49;10.57;;;4.88;;
7703;SDS011;3894;49.700;10.770;2022-12-07T15:08:14;11.68;;;4.95;;
7703;SDS011;3894;49.700;10.770;2022-12-07T15:10:40;14.75;;;5.95;;
7703;SDS011;3894;49.700;10.770;2022-12-07T15:13:06;15.00;;;6.78;;
7703;SDS011;3894;49.700;10.770;2022-12-07T15:16:08;17.15;;;5.03;;
7703;SDS011;3894;49.700;10.770;2022-12-07T15:18:36;14.93;;;7.15;;
7703;SDS011;3894;49.700;10.770;2022-12-07T15:21:02;14.85;;;6.47;;
7703;SDS011;3894;49.700;10.770;2022-12-07T15:23:27;20.85;;;9.05;;
7703;SDS011;3894;49.700;10.770;2022-12-07T15:25:53;17.95;;;9.00;;
7703;SDS011;3894;49.700;10.770;2022-12-07T15:28:18;31.88;;;14.48;;
7703;SDS011;3894;49.700;10.770;2022-12-07T15:30:44;19.98;;;8.93;;
7703;SDS011;3894;49.700;10.770;2022-12-07T15:33:10;19.85;;;8.38;;
7703;SDS011;3894;49.700;10.770;2022-12-07T15:35:40;17.63;;;7.75;;
7703;SDS011;3894;49.700;10.770;2022-12-07T15:38:06;23.13;;;9.98;;
7703;SDS011;3894;49.700;10.770;2022-12-07T15:40:32;20.83;;;8.93;;
7703;SDS011;3894;49.700;10.770;2022-12-07T15:42:57;17.13;;;6.70;;
7703;SDS011;3894;49.700;10.770;2022-12-07T15:45:23;22.88;;;9.00;;
7703;SDS011;3894;49.700;10.770;2022-12-07T15:47:48;25.33;;;10.23;;
7703;SDS011;3894;49.700;10.770;2022-12-07T15:50:15;19.85;;;8.00;;
7703;SDS011;3894;49.700;10.770;2022-12-07T15:52:41;21.30;;;8.43;;
7703;SDS011;3894;49.700;10.770;2022-12-07T15:55:07;22.80;;;8.40;;
7703;SDS011;3894;49.700;10.770;2022-12-07T15:57:34;26.45;;;10.98;;
7703;SDS011;3894;49.700;10.770;2022-12-07T16:00:02;25.98;;;8.57;;
7703;SDS011;3894;49.700;10.770;2022-12-07T16:02:29;37.30;;;15.52;;
7703;SDS011;3894;49.700;10.770;2022-12-07T16:04:54;30.95;;;15.45;;
7703;SDS011;3894;49.700;10.770;2022-12-07T16:07:20;26.58;;;12.50;;
7703;SDS011;3894;49.700;10.770;2022-12-07T16:09:46;34.25;;;15.15;;
7703;SDS011;3894;49.700;10.770;2022-12-07T16:12:12;34.47;;;15.98;;
7703;SDS011;3894;49.700;10.770;2022-12-07T16:14:38;28.20;;;11.07;;
7703;SDS011;3894;49.700;10.770;2022-12-07T16:17:05;24.42;;;8.90;;
7703;SDS011;3894;49.700;10.770;2022-12-07T16:19:32;31.60;;;12.93;;
7703;SDS011;3894;49.700;10.770;2022-12-07T16:21:58;24.23;;;9.75;;
7703;SDS011;3894;49.700;10.770;2022-12-07T16:24:25;47.13;;;16.98;;
7703;SDS011;3894;49.700;10.770;2022-12-07T16:26:51;43.92;;;15.63;;
7703;SDS011;3894;49.700;10.770;2022-12-07T16:29:17;34.05;;;14.38;;
7703;SDS011;3894;49.700;10.770;2022-12-07T16:31:44;48.28;;;18.38;;
7703;SDS011;3894;49.700;10.770;2022-12-07T16:34:10;36.15;;;13.90;;
7703;SDS011;3894;49.700;10.770;2022-12-07T16:36:36;23.23;;;8.60;;
7703;SDS011;3894;49.700;10.770;2022-12-07T16:39:02;31.13;;;12.38;;
7703;SDS011;3894;49.700;10.770;2022-12-07T16:41:28;36.95;;;13.32;;
7703;SDS011;3894;49.700;10.770;2022-12-07T16:43:54;29.05;;;12.82;;
7703;SDS011;3894;49.700;10.770;2022-12-07T16:46:19;28.00;;;12.70;;
7703;SDS011;3894;49.700;10.770;2022-12-07T16:48:45;20.80;;;9.02;;
7703;SDS011;3894;49.700;10.770;2022-12-07T16:51:11;24.30;;;12.20;;
7703;SDS011;3894;49.700;10.770;2022-12-07T16:53:39;22.85;;;10.32;;
7703;SDS011;3894;49.700;10.770;2022-12-07T16:56:09;24.20;;;11.70;;
7703;SDS011;3894;49.700;10.770;2022-12-07T16:58:36;23.58;;;10.48;;
7703;SDS011;3894;49.700;10.770;2022-12-07T17:01:09;23.45;;;9.07;;
7703;SDS011;3894;49.700;10.770;2022-12-07T17:03:36;27.42;;;12.48;;
7703;SDS011;3894;49.700;10.770;2022-12-07T17:06:01;23.48;;;7.90;;
7703;SDS011;3894;49.700;10.770;2022-12-07T17:08:27;20.90;;;8.18;;
7703;SDS011;3894;49.700;10.770;2022-12-07T17:10:53;20.13;;;7.75;;